createdAt,value
2024-04-06T00:00:57.990Z,81.18
2024-04-06T00:01:57.996Z,81.38
2024-04-06T00:02:57.973Z,81.38
2024-04-06T00:03:57.970Z,81.78
2024-04-06T00:04:57.987Z,82.09
2024-04-06T00:05:57.945Z,81.99
2024-04-06T00:06:57.974Z,81.78
2024-04-06T00:08:06.075Z,81.68
2024-04-06T00:08:57.916Z,81.78
2024-04-06T00:09:57.912Z,81.58
2024-04-06T00:10:57.889Z,81.58
2024-04-06T00:11:57.901Z,81.18
2024-04-06T00:12:57.893Z,81.07
2024-04-06T00:13:57.867Z,81.38
2024-04-06T00:14:57.866Z,81.48
2024-04-06T00:15:57.847Z,81.88
2024-04-06T00:16:57.849Z,81.88
2024-04-06T00:17:57.828Z,81.68
2024-04-06T00:18:57.813Z,81.68
2024-04-06T00:19:57.806Z,81.68
2024-04-06T00:20:57.792Z,81.68
2024-04-06T00:21:57.816Z,81.48
2024-04-06T00:22:57.766Z,81.78
2024-04-06T00:23:57.761Z,81.78
2024-04-06T00:24:57.744Z,81.99
2024-04-06T00:25:57.749Z,82.09
2024-04-06T00:26:57.807Z,82.39
2024-04-06T00:27:57.725Z,82.59
2024-04-06T00:28:57.733Z,82.70
2024-04-06T00:29:57.701Z,82.50
2024-04-06T00:30:57.705Z,82.70
2024-04-06T00:31:57.706Z,82.70
2024-04-06T00:32:57.672Z,82.29
2024-04-06T00:33:57.673Z,82.50
2024-04-06T00:34:57.664Z,82.59
2024-04-06T00:35:57.850Z,82.29
2024-04-06T00:36:57.676Z,81.78
2024-04-06T00:37:57.627Z,81.88
2024-04-06T00:38:57.613Z,82.19
2024-04-06T00:39:57.601Z,82.43
2024-04-06T00:40:57.588Z,82.33
2024-04-06T00:41:57.600Z,82.23
2024-04-06T00:42:57.571Z,82.12
2024-04-06T00:43:58.544Z,82.03
2024-04-06T00:44:57.552Z,82.03
2024-04-06T00:45:57.545Z,82.33
2024-04-06T00:46:57.543Z,82.43
2024-04-06T00:47:57.514Z,82.53
2024-04-06T00:48:57.512Z,82.64
2024-04-06T00:49:57.510Z,82.53
2024-04-06T00:50:57.482Z,82.73
2024-04-06T00:51:57.489Z,82.94
2024-04-06T00:52:57.478Z,83.18
2024-04-06T00:53:57.453Z,82.78
2024-04-06T00:54:57.443Z,82.87
2024-04-06T00:55:57.439Z,83.28
2024-04-06T00:56:57.437Z,83.18
2024-04-06T00:57:57.431Z,83.18
2024-04-06T00:58:57.413Z,83.18
2024-04-06T00:59:57.403Z,83.48
2024-04-06T01:00:57.385Z,83.18
2024-04-06T01:02:04.964Z,82.98
2024-04-06T01:02:57.368Z,83.18
2024-04-06T01:03:57.470Z,83.28
2024-04-06T01:04:57.343Z,83.38
2024-04-06T01:05:57.334Z,83.42
2024-04-06T01:06:57.333Z,83.32
2024-04-06T01:07:57.328Z,83.48
2024-04-06T01:08:57.466Z,83.62
2024-04-06T01:09:57.339Z,83.62
2024-04-06T01:10:57.278Z,83.83
2024-04-06T01:11:57.293Z,83.83
2024-04-06T01:12:57.259Z,84.03
2024-04-06T01:13:57.258Z,84.13
2024-04-06T01:14:57.238Z,84.03
2024-04-06T01:15:57.232Z,84.03
2024-04-06T01:16:57.235Z,84.13
2024-04-06T01:17:57.198Z,84.13
2024-04-06T01:18:57.206Z,84.13
2024-04-06T01:19:57.186Z,84.07
2024-04-06T01:20:57.180Z,83.87
2024-04-06T01:21:57.190Z,83.87
2024-04-06T01:22:57.195Z,83.87
2024-04-06T01:23:57.140Z,83.87
2024-04-06T01:24:57.151Z,83.97
2024-04-06T01:25:57.127Z,83.97
2024-04-06T01:26:57.122Z,83.97
2024-04-06T01:27:57.116Z,84.07
2024-04-06T01:28:57.106Z,83.97
2024-04-06T01:29:57.083Z,84.17
2024-04-06T01:30:57.149Z,84.28
2024-04-06T01:31:57.078Z,84.28
2024-04-06T01:32:57.043Z,84.38
2024-04-06T01:33:57.036Z,84.52
2024-04-06T01:34:57.017Z,84.58
2024-04-06T01:35:57.012Z,84.62
2024-04-06T01:36:57.010Z,84.52
2024-04-06T01:37:57.009Z,84.72
2024-04-06T01:38:57.017Z,84.82
2024-04-06T01:39:57.004Z,84.62
2024-04-06T01:40:56.960Z,84.72
2024-04-06T01:41:56.972Z,84.72
2024-04-06T01:42:56.940Z,85.03
2024-04-06T01:43:56.936Z,85.23
2024-04-06T01:44:56.924Z,84.92
2024-04-06T01:45:56.915Z,84.92
2024-04-06T01:46:56.896Z,84.82
2024-04-06T01:47:56.914Z,85.03
2024-04-06T01:48:56.900Z,85.23
2024-04-06T01:49:56.867Z,85.23
2024-04-06T01:50:56.868Z,85.23
2024-04-06T01:51:56.861Z,85.53
2024-04-06T01:52:56.846Z,85.23
2024-04-06T01:53:56.820Z,85.23
2024-04-06T01:54:56.842Z,85.23
2024-04-06T01:55:56.808Z,85.23
2024-04-06T01:56:56.799Z,85.23
2024-04-06T01:57:56.814Z,85.23
2024-04-06T01:58:56.781Z,85.23
2024-04-06T01:59:56.768Z,85.13
2024-04-06T02:00:56.748Z,85.03
2024-04-06T02:01:56.738Z,85.03
2024-04-06T02:02:56.753Z,85.03
2024-04-06T02:03:56.726Z,84.92
2024-04-06T02:04:56.707Z,84.92
2024-04-06T02:05:56.707Z,84.82
2024-04-06T02:06:56.676Z,84.92
2024-04-06T02:07:56.698Z,85.27
2024-04-06T02:08:56.664Z,85.17
2024-04-06T02:09:56.659Z,85.17
2024-04-06T02:10:56.643Z,85.17
2024-04-06T02:11:56.631Z,85.06
2024-04-06T02:12:56.642Z,85.27
2024-04-06T02:13:56.607Z,85.17
2024-04-06T02:14:56.600Z,85.17
2024-04-06T02:15:56.600Z,85.17
2024-04-06T02:16:56.586Z,85.27
2024-04-06T02:17:56.586Z,85.37
2024-04-06T02:18:56.565Z,85.27
2024-04-06T02:19:56.549Z,85.27
2024-04-06T02:20:56.528Z,85.27
2024-04-06T02:21:56.527Z,85.17
2024-04-06T02:22:56.543Z,85.17
2024-04-06T02:23:56.525Z,85.17
2024-04-06T02:24:56.487Z,85.06
2024-04-06T02:25:56.492Z,85.06
2024-04-06T02:26:56.484Z,85.17
2024-04-06T02:27:56.478Z,85.17
2024-04-06T02:28:56.452Z,85.17
2024-04-06T02:29:56.440Z,85.17
2024-04-06T02:30:56.437Z,85.17
2024-04-06T02:31:56.430Z,85.27
2024-04-06T02:32:56.437Z,85.27
2024-04-06T02:33:56.417Z,85.17
2024-04-06T02:34:56.402Z,85.27
2024-04-06T02:35:56.379Z,85.27
2024-04-06T02:36:56.377Z,85.37
2024-04-06T02:37:56.370Z,85.27
2024-04-06T02:38:56.364Z,85.37
2024-04-06T02:39:56.341Z,85.37
2024-04-06T02:40:56.327Z,85.47
2024-04-06T02:41:56.316Z,85.68
2024-04-06T02:42:56.320Z,85.37
2024-04-06T02:43:56.312Z,85.47
2024-04-06T02:44:56.280Z,85.68
2024-04-06T02:45:56.282Z,85.78
2024-04-06T02:46:56.307Z,85.68
2024-04-06T02:47:56.294Z,85.78
2024-04-06T02:48:56.345Z,85.78
2024-04-06T02:49:56.310Z,85.78
2024-04-06T02:50:56.268Z,85.68
2024-04-06T02:51:56.310Z,85.68
2024-04-06T02:52:56.331Z,85.68
2024-04-06T02:53:56.197Z,85.78
2024-04-06T02:54:56.192Z,85.98
2024-04-06T02:55:56.174Z,86.08
2024-04-06T02:56:56.158Z,86.13
2024-04-06T02:57:56.155Z,86.19
2024-04-06T02:58:56.134Z,86.08
2024-04-06T02:59:56.129Z,86.08
2024-04-06T03:00:56.107Z,86.13
2024-04-06T03:01:56.104Z,86.08
2024-04-06T03:02:56.118Z,86.08
2024-04-06T03:03:56.091Z,85.98
2024-04-06T03:04:56.091Z,86.02
2024-04-06T03:05:56.074Z,85.98
2024-04-06T03:06:56.047Z,85.98
2024-04-06T03:07:56.069Z,86.02
2024-04-06T03:08:56.026Z,86.13
2024-04-06T03:09:56.034Z,86.13
2024-04-06T03:10:56.026Z,86.02
2024-04-06T03:11:56.037Z,85.98
2024-04-06T03:12:55.982Z,86.13
2024-04-06T03:13:55.975Z,86.22
2024-04-06T03:14:55.959Z,85.98
2024-04-06T03:15:55.972Z,85.72
2024-04-06T03:16:55.938Z,85.61
2024-04-06T03:17:55.939Z,85.61
2024-04-06T03:18:55.968Z,85.51
2024-04-06T03:19:55.915Z,85.41
2024-04-06T03:20:55.915Z,85.41
2024-04-06T03:21:55.903Z,85.31
2024-04-06T03:22:55.879Z,85.55
2024-04-06T03:23:55.872Z,85.66
2024-04-06T03:24:55.867Z,85.66
2024-04-06T03:25:55.859Z,85.75
2024-04-06T03:26:55.833Z,85.86
2024-04-06T03:27:55.846Z,85.86
2024-04-06T03:28:55.823Z,86.06
2024-04-06T03:29:55.826Z,85.75
2024-04-06T03:30:55.819Z,85.75
2024-04-06T03:31:55.783Z,85.96
2024-04-06T03:32:55.811Z,85.96
2024-04-06T03:33:55.770Z,85.86
2024-04-06T03:34:55.757Z,85.72
2024-04-06T03:35:55.766Z,85.66
2024-04-06T03:36:55.738Z,85.45
2024-04-06T03:37:55.719Z,85.55
2024-04-06T03:38:55.712Z,85.45
2024-04-06T03:39:55.694Z,85.55
2024-04-06T03:40:55.691Z,85.45
2024-04-06T03:41:55.695Z,85.55
2024-04-06T03:42:55.681Z,85.45
2024-04-06T03:43:55.654Z,85.45
2024-04-06T03:44:55.668Z,85.45
2024-04-06T03:45:55.634Z,85.45
2024-04-06T03:46:55.656Z,85.45
2024-04-06T03:47:55.616Z,85.66
2024-04-06T03:48:55.627Z,85.86
2024-04-06T03:49:55.599Z,85.86
2024-04-06T03:50:55.584Z,85.96
2024-04-06T03:51:55.603Z,85.86
2024-04-06T03:52:55.587Z,85.55
2024-04-06T03:53:55.550Z,85.86
2024-04-06T03:54:55.542Z,85.86
2024-04-06T03:55:55.701Z,85.96
2024-04-06T03:56:55.548Z,86.06
2024-04-06T03:57:55.519Z,86.16
2024-04-06T03:58:55.495Z,86.16
2024-04-06T03:59:55.493Z,86.27
2024-04-06T04:00:55.480Z,86.06
2024-04-06T04:01:55.491Z,86.27
2024-04-06T04:02:55.450Z,86.27
2024-04-06T04:03:55.451Z,86.27
2024-04-06T04:04:55.434Z,86.37
2024-04-06T04:05:55.431Z,86.57
2024-04-06T04:06:55.434Z,86.51
2024-04-06T04:07:55.400Z,86.51
2024-04-06T04:08:55.389Z,86.51
2024-04-06T04:09:55.426Z,86.41
2024-04-06T04:10:55.411Z,86.30
2024-04-06T04:11:55.361Z,86.21
2024-04-06T04:12:55.378Z,86.21
2024-04-06T04:13:55.352Z,86.00
2024-04-06T04:14:55.336Z,86.00
2024-04-06T04:15:55.320Z,86.21
2024-04-06T04:16:55.318Z,86.10
2024-04-06T04:17:55.332Z,86.10
2024-04-06T04:18:55.275Z,86.10
2024-04-06T04:19:55.311Z,86.00
2024-04-06T04:20:55.278Z,85.69
2024-04-06T04:21:55.315Z,85.90
2024-04-06T04:22:55.317Z,85.90
2024-04-06T04:23:55.246Z,86.00
2024-04-06T04:24:55.228Z,85.80
2024-04-06T04:25:55.213Z,86.00
2024-04-06T04:26:55.214Z,86.00
2024-04-06T04:27:55.199Z,85.80
2024-04-06T04:28:55.198Z,86.00
2024-04-06T04:29:55.186Z,86.00
2024-04-06T04:30:55.170Z,86.10
2024-04-06T04:31:55.163Z,86.00
2024-04-06T04:32:55.147Z,85.90
2024-04-06T04:33:55.155Z,86.00
2024-04-06T04:34:55.128Z,86.15
2024-04-06T04:35:55.127Z,86.04
2024-04-06T04:36:55.100Z,86.04
2024-04-06T04:37:55.087Z,86.15
2024-04-06T04:38:55.158Z,86.21
2024-04-06T04:39:55.076Z,86.15
2024-04-06T04:40:55.058Z,85.90
2024-04-06T04:41:55.059Z,86.15
2024-04-06T04:42:55.035Z,86.35
2024-04-06T04:43:55.045Z,86.35
2024-04-06T04:44:58.869Z,86.35
2024-04-06T04:45:55.009Z,86.45
2024-04-06T04:46:54.997Z,86.35
2024-04-06T04:47:55.004Z,86.35
2024-04-06T04:48:54.996Z,86.45
2024-04-06T04:49:54.986Z,86.45
2024-04-06T04:50:54.963Z,86.35
2024-04-06T04:51:54.944Z,86.45
2024-04-06T04:52:54.958Z,86.45
2024-04-06T04:53:54.934Z,86.30
2024-04-06T04:54:54.925Z,86.30
2024-04-06T04:55:54.928Z,86.30
2024-04-06T04:56:54.890Z,86.10
2024-04-06T04:57:54.895Z,86.00
2024-04-06T04:58:54.896Z,85.69
2024-04-06T04:59:54.865Z,85.60
2024-04-06T05:00:54.855Z,85.69
2024-04-06T05:01:54.844Z,85.69
2024-04-06T05:02:54.828Z,85.69
2024-04-06T05:03:54.842Z,85.35
2024-04-06T05:04:54.812Z,85.25
2024-04-06T05:05:54.797Z,85.25
2024-04-06T05:06:54.793Z,84.94
2024-04-06T05:07:54.803Z,84.64
2024-04-06T05:08:54.782Z,84.43
2024-04-06T05:09:54.793Z,84.53
2024-04-06T05:10:54.763Z,84.64
2024-04-06T05:11:54.752Z,84.53
2024-04-06T05:12:54.734Z,84.59
2024-04-06T05:13:54.745Z,84.70
2024-04-06T05:14:54.707Z,84.50
2024-04-06T05:15:54.694Z,84.50
2024-04-06T05:16:54.693Z,83.89
2024-04-06T05:17:54.678Z,83.84
2024-04-06T05:18:54.678Z,83.34
2024-04-06T05:19:54.651Z,83.23
2024-04-06T05:20:54.635Z,83.40
2024-04-06T05:21:54.632Z,83.60
2024-04-06T05:22:54.615Z,83.50
2024-04-06T05:23:54.628Z,83.15
2024-04-06T05:24:54.601Z,82.75
2024-04-06T05:25:54.587Z,82.40
2024-04-06T05:26:54.569Z,82.10
2024-04-06T05:27:54.562Z,81.66
2024-04-06T05:28:54.571Z,81.35
2024-04-06T05:29:54.548Z,80.80
2024-04-06T05:30:54.542Z,79.75
2024-04-06T05:31:54.528Z,78.70
2024-04-06T05:32:54.519Z,78.50
2024-04-06T05:33:54.527Z,78.36
2024-04-06T05:34:54.504Z,76.93
2024-04-06T05:35:54.489Z,73.83
2024-04-06T05:36:54.470Z,72.68
2024-04-06T05:37:54.463Z,72.68
2024-04-06T05:38:54.478Z,72.78
2024-04-06T05:39:54.448Z,73.22
2024-04-06T05:40:54.442Z,73.56
2024-04-06T05:41:54.432Z,73.90
2024-04-06T05:42:54.409Z,74.20
2024-04-06T05:43:54.414Z,74.54
2024-04-06T05:44:54.396Z,75.35
2024-04-06T05:45:54.379Z,76.09
2024-04-06T05:46:55.270Z,75.49
2024-04-06T05:47:54.359Z,76.09
2024-04-06T05:48:54.358Z,76.84
2024-04-06T05:49:54.346Z,77.25
2024-04-06T05:50:54.324Z,77.55
2024-04-06T05:51:54.322Z,77.75
2024-04-06T05:52:54.308Z,77.99
2024-04-06T05:53:54.327Z,78.30
2024-04-06T05:54:54.297Z,77.89
2024-04-06T05:55:54.281Z,78.19
2024-04-06T05:56:54.263Z,78.30
2024-04-06T05:57:54.256Z,78.64
2024-04-06T05:58:54.284Z,78.94
2024-04-06T05:59:54.271Z,78.94
2024-04-06T06:00:54.236Z,78.74
2024-04-06T06:01:54.222Z,79.14
2024-04-06T06:02:54.215Z,79.25
2024-04-06T06:03:54.215Z,79.45
2024-04-06T06:04:54.195Z,78.94
2024-04-06T06:05:54.175Z,79.04
2024-04-06T06:06:54.173Z,78.74
2024-04-06T06:07:54.178Z,78.84
2024-04-06T06:08:54.192Z,79.45
2024-04-06T06:09:54.164Z,79.04
2024-04-06T06:10:54.160Z,78.94
2024-04-06T06:11:54.135Z,78.84
2024-04-06T06:12:54.099Z,78.74
2024-04-06T06:13:54.133Z,79.04
2024-04-06T06:14:54.079Z,79.45
2024-04-06T06:15:54.082Z,78.74
2024-04-06T06:16:54.057Z,79.04
2024-04-06T06:17:54.083Z,78.64
2024-04-06T06:18:54.060Z,78.74
2024-04-06T06:19:54.031Z,79.14
2024-04-06T06:20:54.026Z,78.94
2024-04-06T06:21:54.028Z,78.80
2024-04-06T06:22:54.007Z,78.40
2024-04-06T06:23:54.007Z,78.50
2024-04-06T06:24:54.000Z,77.99
2024-04-06T06:25:53.963Z,77.65
2024-04-06T06:26:53.974Z,77.08
2024-04-06T06:27:53.939Z,77.65
2024-04-06T06:28:53.927Z,77.34
2024-04-06T06:29:53.971Z,77.04
2024-04-06T06:30:53.911Z,76.60
2024-04-06T06:31:53.912Z,76.60
2024-04-06T06:32:53.919Z,76.26
2024-04-06T06:33:53.891Z,76.06
2024-04-06T06:34:53.890Z,75.76
2024-04-06T06:37:53.875Z,75.21
2024-04-06T06:40:53.816Z,74.20
2024-04-06T06:41:53.803Z,74.00
2024-04-06T06:42:53.799Z,74.71
2024-04-06T06:43:53.793Z,74.40
2024-04-06T06:44:53.784Z,74.20
2024-04-06T06:45:53.952Z,74.20
2024-04-06T06:46:53.764Z,74.81
2024-04-06T06:47:53.751Z,74.71
2024-04-06T06:48:53.738Z,74.40
2024-04-06T06:49:53.740Z,74.47
2024-04-06T06:50:53.705Z,74.27
2024-04-06T06:51:53.698Z,74.07
2024-04-06T06:52:53.682Z,73.96
2024-04-06T06:53:53.696Z,74.37
2024-04-06T06:54:53.691Z,74.77
2024-04-06T06:55:53.659Z,75.38
2024-04-06T06:56:53.651Z,74.98
2024-04-06T06:57:53.650Z,75.28
2024-04-06T06:58:53.623Z,74.57
2024-04-06T07:00:53.664Z,73.86
2024-04-06T07:01:53.613Z,73.76
2024-04-06T07:02:53.594Z,74.27
2024-04-06T07:03:53.588Z,74.67
2024-04-06T07:04:53.590Z,74.16
2024-04-06T07:05:53.567Z,73.96
2024-04-06T07:07:53.562Z,74.47
2024-04-06T07:09:53.542Z,75.07
2024-04-06T07:10:53.509Z,73.66
2024-04-06T07:11:53.554Z,75.07
2024-04-06T07:12:53.550Z,75.48
2024-04-06T07:13:53.531Z,75.79
2024-04-06T07:14:53.481Z,75.58
2024-04-06T07:15:53.470Z,75.18
2024-04-06T07:16:53.445Z,74.77
2024-04-06T07:17:53.447Z,74.74
2024-04-06T07:18:53.428Z,75.65
2024-04-06T07:19:53.458Z,74.80
2024-04-06T07:20:53.412Z,73.55
2024-04-06T07:21:53.424Z,72.07
2024-04-06T07:22:53.386Z,70.09
2024-04-06T07:23:53.385Z,69.05
2024-04-06T07:24:53.368Z,68.18
2024-04-06T07:25:53.379Z,66.77
2024-04-06T07:26:53.361Z,65.67
2024-04-06T07:27:53.346Z,62.47
2024-04-06T07:28:53.349Z,60.31
2024-04-06T07:29:53.324Z,58.92
2024-04-06T07:30:53.322Z,57.07
2024-04-06T07:31:53.298Z,56.46
2024-04-06T07:32:54.989Z,55.44
2024-04-06T07:33:53.290Z,54.61
2024-04-06T07:34:53.285Z,54.39
2024-04-06T07:35:53.293Z,54.16
2024-04-06T07:36:53.266Z,53.52
2024-04-06T07:37:53.229Z,52.32
2024-04-06T07:39:53.213Z,50.95
2024-04-06T07:40:53.219Z,49.83
2024-04-06T07:41:53.262Z,49.88
2024-04-06T07:42:53.182Z,48.07
2024-04-06T07:43:53.178Z,48.35
2024-04-06T07:44:53.162Z,47.53
2024-04-06T07:45:53.166Z,46.51
2024-04-06T07:46:53.148Z,46.19
2024-04-06T07:47:53.139Z,46.53
2024-04-06T07:48:53.125Z,47.21
2024-04-06T07:49:53.119Z,48.13
2024-04-06T07:50:53.115Z,47.95
2024-04-06T07:51:53.092Z,47.70
2024-04-06T07:52:56.566Z,48.76
2024-04-06T07:53:53.077Z,50.50
2024-04-06T07:54:53.060Z,51.57
2024-04-06T07:55:53.135Z,52.29
2024-04-06T07:56:53.054Z,52.32
2024-04-06T07:57:53.025Z,51.54
2024-04-06T07:58:53.012Z,49.91
2024-04-06T07:59:54.821Z,48.39
2024-04-06T08:00:53.009Z,47.87
2024-04-06T08:01:52.990Z,47.25
2024-04-06T08:02:52.985Z,47.13
2024-04-06T08:03:52.966Z,46.24
2024-04-06T08:04:52.965Z,46.71
2024-04-06T08:05:52.985Z,45.45
2024-04-06T08:06:52.933Z,46.14
2024-04-06T08:07:52.940Z,47.53
2024-04-06T08:08:52.928Z,46.24
2024-04-06T08:09:52.917Z,45.96
2024-04-06T08:10:52.938Z,47.05
2024-04-06T08:11:52.902Z,48.14
2024-04-06T08:12:52.876Z,47.05
2024-04-06T08:13:52.869Z,47.16
2024-04-06T08:14:52.852Z,46.68
2024-04-06T08:15:52.872Z,48.59
2024-04-06T08:16:52.872Z,48.59
2024-04-06T08:17:52.838Z,49.61
2024-04-06T08:18:52.809Z,49.21
2024-04-06T08:19:52.813Z,48.94
2024-04-06T08:20:52.816Z,49.26
2024-04-06T08:21:52.798Z,50.78
2024-04-06T08:22:52.778Z,50.80
2024-04-06T08:23:52.768Z,52.02
2024-04-06T08:24:52.741Z,52.81
2024-04-06T08:25:52.764Z,52.55
2024-04-06T08:26:52.738Z,52.44
2024-04-06T08:27:52.727Z,52.76
2024-04-06T08:28:52.703Z,53.86
2024-04-06T08:29:52.725Z,53.36
2024-04-06T08:30:52.722Z,54.02
2024-04-06T08:31:52.687Z,53.92
2024-04-06T08:32:52.675Z,54.11
2024-04-06T08:33:52.689Z,54.04
2024-04-06T08:34:52.646Z,54.84
2024-04-06T08:35:52.657Z,55.34
2024-04-06T08:36:52.639Z,55.79
2024-04-06T08:37:52.613Z,55.89
2024-04-06T08:38:52.607Z,55.89
2024-04-06T08:39:52.604Z,56.89
2024-04-06T08:40:52.605Z,56.59
2024-04-06T08:41:52.580Z,56.59
2024-04-06T08:42:52.573Z,57.39
2024-04-06T08:43:52.560Z,55.59
2024-04-06T08:44:52.555Z,55.79
2024-04-06T08:45:52.566Z,55.69
2024-04-06T08:46:52.537Z,55.40
2024-04-06T08:47:52.523Z,57.59
2024-04-06T08:48:52.518Z,57.69
2024-04-06T08:49:52.499Z,56.92
2024-04-06T08:50:52.499Z,56.22
2024-04-06T08:51:52.478Z,58.12
2024-04-06T08:52:52.457Z,57.05
2024-04-06T08:53:52.468Z,57.55
2024-04-06T08:54:52.450Z,57.75
2024-04-06T08:55:52.451Z,58.48
2024-04-06T08:56:52.423Z,58.87
2024-04-06T08:57:52.443Z,60.11
2024-04-06T08:58:52.402Z,59.61
2024-04-06T08:59:52.396Z,59.68
2024-04-06T09:00:52.404Z,58.78
2024-04-06T09:01:52.376Z,60.08
2024-04-06T09:02:52.359Z,60.78
2024-04-06T09:03:52.349Z,58.48
2024-04-06T09:04:52.348Z,60.58
2024-04-06T09:05:52.348Z,60.48
2024-04-06T09:06:52.317Z,59.78
2024-04-06T09:07:52.335Z,59.98
2024-04-06T09:08:52.312Z,59.38
2024-04-06T09:09:52.292Z,58.65
2024-04-06T09:10:52.330Z,59.25
2024-04-06T09:11:52.274Z,58.55
2024-04-06T09:12:52.254Z,58.85
2024-04-06T09:13:52.257Z,58.75
2024-04-06T09:14:52.228Z,57.15
2024-04-06T09:15:52.303Z,57.45
2024-04-06T09:16:52.214Z,57.45
2024-04-06T09:17:52.202Z,58.65
2024-04-06T09:18:52.213Z,57.95
2024-04-06T09:19:52.186Z,57.68
2024-04-06T09:20:52.222Z,58.58
2024-04-06T09:21:52.229Z,60.18
2024-04-06T09:22:52.146Z,59.08
2024-04-06T09:23:52.148Z,58.75
2024-04-06T09:24:52.139Z,56.95
2024-04-06T09:25:52.141Z,58.32
2024-04-06T09:26:52.118Z,56.62
2024-04-06T09:27:52.099Z,56.42
2024-04-06T09:28:52.095Z,57.22
2024-04-06T09:29:52.083Z,58.19
2024-04-06T09:30:52.087Z,58.19
2024-04-06T09:31:52.054Z,56.09
2024-04-06T09:32:52.046Z,57.29
2024-04-06T09:33:52.055Z,57.52
2024-04-06T09:34:52.030Z,57.59
2024-04-06T09:35:52.044Z,57.52
2024-04-06T09:36:52.019Z,58.62
2024-04-06T09:37:52.019Z,57.75
2024-04-06T09:38:52.013Z,57.45
2024-04-06T09:39:51.981Z,57.65
2024-04-06T09:40:51.998Z,58.45
2024-04-06T09:41:51.958Z,56.77
2024-04-06T09:42:51.957Z,58.28
2024-04-06T09:43:51.967Z,59.18
2024-04-06T09:44:51.931Z,59.00
2024-04-06T09:45:51.926Z,59.50
2024-04-06T09:46:51.927Z,59.41
2024-04-06T09:47:51.907Z,59.81
2024-04-06T09:48:51.883Z,59.91
2024-04-06T09:49:51.926Z,59.20
2024-04-06T09:50:52.070Z,59.00
2024-04-06T09:51:51.902Z,59.41
2024-04-06T09:52:51.838Z,60.28
2024-04-06T09:53:51.849Z,60.48
2024-04-06T09:54:51.822Z,59.38
2024-04-06T09:55:51.827Z,58.28
2024-04-06T09:56:51.816Z,59.58
2024-04-06T09:57:51.789Z,59.48
2024-04-06T09:58:51.846Z,58.48
2024-04-06T09:59:53.951Z,59.48
2024-04-06T10:00:51.769Z,59.28
2024-04-06T10:01:51.758Z,59.88
2024-04-06T10:02:51.738Z,59.28
2024-04-06T10:03:51.731Z,59.58
2024-04-06T10:04:51.714Z,58.48
2024-04-06T10:05:51.736Z,58.78
2024-04-06T10:06:51.689Z,57.90
2024-04-06T10:07:51.742Z,59.31
2024-04-06T10:08:51.681Z,59.98
2024-04-06T10:09:51.671Z,60.18
2024-04-06T10:10:51.680Z,60.58
2024-04-06T10:11:51.650Z,58.98
2024-04-06T10:12:51.647Z,58.78
2024-04-06T10:13:51.656Z,58.87
2024-04-06T10:14:51.628Z,58.78
2024-04-06T10:15:51.662Z,58.28
2024-04-06T10:16:51.645Z,59.18
2024-04-06T10:17:51.586Z,58.37
2024-04-06T10:18:51.578Z,60.01
2024-04-06T10:19:51.575Z,59.78
2024-04-06T10:20:51.579Z,58.58
2024-04-06T10:21:51.555Z,59.48
2024-04-06T10:22:51.525Z,58.78
2024-04-06T10:23:51.546Z,57.98
2024-04-06T10:24:51.506Z,56.67
2024-04-06T10:25:51.519Z,58.15
2024-04-06T10:26:51.495Z,58.85
2024-04-06T10:27:51.498Z,57.75
2024-04-06T10:28:51.487Z,57.95
2024-04-06T10:29:51.464Z,57.65
2024-04-06T10:30:51.496Z,58.35
2024-04-06T10:31:51.491Z,58.82
2024-04-06T10:32:51.424Z,57.62
2024-04-06T10:33:51.451Z,58.12
2024-04-06T10:34:51.492Z,58.02
2024-04-06T10:35:51.415Z,58.52
2024-04-06T10:36:51.414Z,57.42
2024-04-06T10:37:51.372Z,56.42
2024-04-06T10:38:51.362Z,55.09
2024-04-06T10:39:51.354Z,56.29
2024-04-06T10:40:51.358Z,57.69
2024-04-06T10:41:51.356Z,55.99
2024-04-06T10:42:51.322Z,55.09
2024-04-06T10:43:51.313Z,53.59
2024-04-06T10:44:51.306Z,54.69
2024-04-06T10:45:51.314Z,53.59
2024-04-06T10:46:51.281Z,55.29
2024-04-06T10:47:51.271Z,54.99
2024-04-06T10:48:51.270Z,55.07
2024-04-06T10:49:51.262Z,53.87
2024-04-06T10:50:51.253Z,56.07
2024-04-06T10:51:51.242Z,55.09
2024-04-06T10:52:51.224Z,54.57
2024-04-06T10:53:51.221Z,52.47
2024-04-06T10:54:51.195Z,53.97
2024-04-06T10:55:51.218Z,53.74
2024-04-06T10:56:51.185Z,53.74
2024-04-06T10:57:51.174Z,53.54
2024-04-06T10:58:51.186Z,53.54
2024-04-06T10:59:51.147Z,55.04
2024-04-06T11:00:51.155Z,54.44
2024-04-06T11:01:51.129Z,53.61
2024-04-06T11:02:51.136Z,53.92
2024-04-06T11:03:51.107Z,52.94
2024-04-06T11:04:51.112Z,52.55
2024-04-06T11:05:51.095Z,53.27
2024-04-06T11:06:51.126Z,52.77
2024-04-06T11:07:51.083Z,52.87
2024-04-06T11:08:51.048Z,52.57
2024-04-06T11:09:51.059Z,54.27
2024-04-06T11:10:51.076Z,54.47
2024-04-06T11:11:51.035Z,54.39
2024-04-06T11:12:51.016Z,54.90
2024-04-06T11:13:51.006Z,53.79
2024-04-06T11:14:51.016Z,54.67
2024-04-06T11:15:51.006Z,54.86
2024-04-06T11:16:50.972Z,55.66
2024-04-06T11:17:50.964Z,55.87
2024-04-06T11:18:50.965Z,55.87
2024-04-06T11:19:50.959Z,54.84
2024-04-06T11:20:50.946Z,52.94
2024-04-06T11:21:50.932Z,52.25
2024-04-06T11:22:50.912Z,53.19
2024-04-06T11:23:50.903Z,54.29
2024-04-06T11:24:50.895Z,54.86
2024-04-06T11:25:50.886Z,54.37
2024-04-06T11:26:50.890Z,55.17
2024-04-06T11:27:50.886Z,54.24
2024-04-06T11:28:50.856Z,53.14
2024-04-06T11:29:50.837Z,52.72
2024-04-06T11:30:50.837Z,52.92
2024-04-06T11:31:50.844Z,51.52
2024-04-06T11:32:50.831Z,52.42
2024-04-06T11:33:50.804Z,52.79
2024-04-06T11:34:50.781Z,51.89
2024-04-06T11:35:50.771Z,51.29
2024-04-06T11:36:50.788Z,51.59
2024-04-06T11:37:50.766Z,51.47
2024-04-06T11:38:50.741Z,50.57
2024-04-06T11:39:50.735Z,50.97
2024-04-06T11:40:50.730Z,51.47
2024-04-06T11:41:50.725Z,51.77
2024-04-06T11:42:50.702Z,51.07
2024-04-06T11:43:50.729Z,51.07
2024-04-06T11:44:50.678Z,51.27
2024-04-06T11:45:50.677Z,50.47
2024-04-06T11:46:50.670Z,51.67
2024-04-06T11:47:50.647Z,51.47
2024-04-06T11:48:50.666Z,50.79
2024-04-06T11:49:50.639Z,50.37
2024-04-06T11:50:50.619Z,50.97
2024-04-06T11:51:50.630Z,50.40
2024-04-06T11:52:50.602Z,49.80
2024-04-06T11:53:51.441Z,51.42
2024-04-06T11:54:50.581Z,50.92
2024-04-06T11:55:50.571Z,51.72
2024-04-06T11:56:50.624Z,52.42
2024-04-06T11:57:50.550Z,51.92
2024-04-06T11:58:50.557Z,51.72
2024-04-06T11:59:50.526Z,52.42
2024-04-06T12:00:50.523Z,52.12
2024-04-06T12:01:50.510Z,52.22
2024-04-06T12:02:50.504Z,51.94
2024-04-06T12:03:50.485Z,52.94
2024-04-06T12:04:50.479Z,52.27
2024-04-06T12:05:50.465Z,52.94
2024-04-06T12:06:50.463Z,53.44
2024-04-06T12:07:50.465Z,52.14
2024-04-06T12:08:50.433Z,52.64
2024-04-06T12:09:50.425Z,52.14
2024-04-06T12:10:50.421Z,51.75
2024-04-06T12:11:50.412Z,52.34
2024-04-06T12:12:50.424Z,52.14
2024-04-06T12:13:50.385Z,51.34
2024-04-06T12:14:50.370Z,51.45
2024-04-06T12:15:50.378Z,50.95
2024-04-06T12:16:50.345Z,51.64
2024-04-06T12:17:50.379Z,51.94
2024-04-06T12:18:50.338Z,51.15
2024-04-06T12:19:50.329Z,51.25
2024-04-06T12:20:50.319Z,51.84
2024-04-06T12:21:50.372Z,52.44
2024-04-06T12:22:50.411Z,51.82
2024-04-06T12:23:50.306Z,50.72
2024-04-06T12:24:50.261Z,51.62
2024-04-06T12:25:50.259Z,51.82
2024-04-06T12:26:50.260Z,51.82
2024-04-06T12:27:50.247Z,50.02
2024-04-06T12:28:50.215Z,50.82
2024-04-06T12:29:50.221Z,50.52
2024-04-06T12:30:50.204Z,51.02
2024-04-06T12:31:50.235Z,50.62
2024-04-06T12:32:50.220Z,50.49
2024-04-06T12:33:52.813Z,50.52
2024-04-06T12:34:50.157Z,50.20
2024-04-06T12:35:50.167Z,50.90
2024-04-06T12:36:50.144Z,51.29
2024-04-06T12:37:50.164Z,50.30
2024-04-06T12:38:50.151Z,50.79
2024-04-06T12:39:50.110Z,51.50
2024-04-06T12:40:50.107Z,50.99
2024-04-06T12:41:50.091Z,50.60
2024-04-06T12:42:50.090Z,51.29
2024-04-06T12:43:50.078Z,51.50
2024-04-06T12:44:50.059Z,52.09
2024-04-06T12:45:50.054Z,51.67
2024-04-06T12:46:50.090Z,50.67
2024-04-06T12:47:50.054Z,50.49
2024-04-06T12:48:50.011Z,50.67
2024-04-06T12:49:50.008Z,50.27
2024-04-06T12:50:49.991Z,50.17
2024-04-06T12:51:49.989Z,50.57
2024-04-06T12:52:49.990Z,50.17
2024-04-06T12:53:49.967Z,50.77
2024-04-06T12:54:49.991Z,50.49
2024-04-06T12:55:49.952Z,50.60
2024-04-06T12:56:50.831Z,49.98
2024-04-06T12:57:49.981Z,50.47
2024-04-06T12:58:49.914Z,50.47
2024-04-06T12:59:49.898Z,50.67
2024-04-06T13:00:49.883Z,50.27